الصفحة الرئيسية
METAR-TAF:

METAR-TAF

مطار :

Tawau, ماليزيا

دائرة عرض: 04-16N, خط طول: 117-53E, ارتفاع: 18 متر

مراقبة الطقس الحالي

تاريخ ووقت الإصدار 58 دقيقة قبل الساعة 16:00UTC
ريح 1 عقدةمن اتجاهات متغيرة
درجة الحرارة 27°درجة مئوية
الرطوبة 94%
ضغط 1008 hPa
الرؤية 10 كم أو أكثر
غيوم قليلة على ارتفاع 1600 قدم

METAR: WBKW 181600Z VRB01KT 9999 FEW016 27/26 Q1008

زمن: 00:58 (16:58 UTC)

توقعات

تاريخ ووقت الإصدار 5ساعات و 58 دقيقة قبل الساعة 11:00UTC
التوقعات صالحة من18 الساعة 12 UTC إلى 19 الساعة 12 UTC
ريح 5 عقدة من الشمال الغربي
الرؤية 10 كم أو أكثر
غيوم قليلة على ارتفاع 1600 قدم
أصبح
من 19 الساعة 02 UTC إلى 19 الساعة 04 UTC
ريح 5 عقدة من الجنوب/الجنوب الشرقي

TAF: WBKW 181100Z 1812/1912 32005KT 9999 FEW016 BECMG 1902/1904 15005KT

أرصاد الطقس والتوقعات من أكثر من 4000 مطار (تقارير الطقس للمطار METAR والتنبؤ بالطقس بالمطارTAF).

المحطات المتاحة هي النقط الصفراء والحمراء على الخريطة.

حرك المؤشر فوق النقطة لمعرفة اسم المحطة.

ثم انقر لمعرفة أرصاد وتوقعات الطقس.

لتغيير الخارطة: اضغط على الأزرار الخضراء مع رمز الصليب الأسود للتكبير. على الزر الأخضر مع شرطة للتصغير، أو على الأسهم الخضراء للخرائط المجاورة.


METAR-TAF: